createdAt,value
2018-09-08T00:00:31.378Z,15.35
2018-09-08T00:01:31.593Z,15.39
2018-09-08T00:02:31.599Z,15.32
2018-09-08T00:03:31.656Z,15.37
2018-09-08T00:04:31.372Z,15.33
2018-09-08T00:05:31.400Z,15.41
2018-09-08T00:06:31.546Z,15.5
2018-09-08T00:07:31.396Z,15.5
2018-09-08T00:08:31.604Z,15.43
2018-09-08T00:09:31.370Z,15.45
2018-09-08T00:10:31.383Z,15.37
2018-09-08T00:11:31.382Z,15.33
2018-09-08T00:12:31.441Z,15.54
2018-09-08T00:13:31.438Z,15.5
2018-09-08T00:14:31.447Z,15.45
2018-09-08T00:15:31.402Z,15.39
2018-09-08T00:16:31.424Z,15.37
2018-09-08T00:17:31.440Z,15.26
2018-09-08T00:18:31.410Z,15.27
2018-09-08T00:19:31.407Z,15.43
2018-09-08T00:20:31.447Z,15.36
2018-09-08T00:21:31.462Z,15.27
2018-09-08T00:22:31.458Z,15.15
2018-09-08T00:23:31.444Z,15.18
2018-09-08T00:24:31.441Z,15.23
2018-09-08T00:25:31.478Z,15.25
2018-09-08T00:26:31.453Z,15.05
2018-09-08T00:27:31.435Z,15.08
2018-09-08T00:28:31.667Z,15.08
2018-09-08T00:29:31.543Z,15.07
2018-09-08T00:30:31.408Z,14.96
2018-09-08T00:31:31.421Z,15.07
2018-09-08T00:32:31.419Z,15.22
2018-09-08T00:33:31.466Z,15.18
2018-09-08T00:34:31.466Z,15.22
2018-09-08T00:35:31.477Z,15.29
2018-09-08T00:42:57.885Z,15.35
2018-09-08T00:51:47.615Z,15.33
2018-09-08T01:03:31.584Z,15.3
2018-09-08T01:03:44.207Z,15.27
2018-09-08T01:04:44.066Z,15.3
2018-09-08T01:05:44.032Z,15.36
2018-09-08T01:06:44.030Z,15.43
2018-09-08T01:07:44.051Z,15.25
2018-09-08T01:08:44.032Z,15.41
2018-09-08T01:09:44.041Z,15.36
2018-09-08T01:10:44.061Z,15.3
2018-09-08T01:11:44.044Z,15.26
2018-09-08T01:12:44.055Z,15.23
2018-09-08T01:13:44.227Z,15.29
2018-09-08T01:14:44.124Z,15.29
2018-09-08T01:15:44.091Z,15.43
2018-09-08T01:16:44.079Z,15.37
2018-09-08T01:17:44.088Z,15.27
2018-09-08T01:18:44.089Z,15.26
2018-09-08T01:19:44.085Z,15.29
2018-09-08T01:20:44.088Z,15.33
2018-09-08T01:21:44.149Z,15.36
2018-09-08T01:22:44.225Z,15.32
2018-09-08T01:23:44.105Z,15.25
2018-09-08T01:24:44.116Z,15.39
2018-09-08T01:25:44.167Z,15.48
2018-09-08T01:26:44.112Z,15.25
2018-09-08T01:27:44.109Z,15.5
2018-09-08T01:28:44.120Z,15.36
2018-09-08T01:29:44.168Z,15.39
2018-09-08T01:30:44.127Z,15.51
2018-09-08T01:31:44.183Z,15.54
2018-09-08T01:32:44.320Z,15.44
2018-09-08T01:33:44.401Z,15.47
2018-09-08T01:34:44.325Z,15.6
2018-09-08T01:35:44.127Z,15.51
2018-09-08T01:36:44.104Z,15.54
2018-09-08T01:37:44.128Z,15.52
2018-09-08T01:38:44.242Z,15.47
2018-09-08T01:39:44.121Z,15.52
2018-09-08T01:40:44.184Z,15.52
2018-09-08T01:41:44.133Z,15.5
2018-09-08T01:42:44.140Z,15.51
2018-09-08T01:43:44.138Z,15.25
2018-09-08T01:44:44.132Z,15.41
2018-09-08T01:45:44.141Z,15.43
2018-09-08T01:46:44.189Z,15.41
2018-09-08T01:47:44.112Z,15.35
2018-09-08T01:48:44.408Z,15.36
2018-09-08T01:49:44.143Z,15.32
2018-09-08T01:50:44.118Z,15.33
2018-09-08T01:51:44.102Z,15.33
2018-09-08T01:52:44.238Z,15.43
2018-09-08T01:53:44.114Z,15.35
2018-09-08T01:54:44.119Z,15.39
2018-09-08T01:55:44.132Z,15.36
2018-09-08T01:56:44.258Z,15.41
2018-09-08T01:57:44.211Z,15.36
2018-09-08T01:58:44.181Z,15.45
2018-09-08T01:59:44.174Z,15.47
2018-09-08T02:00:44.187Z,15.51
2018-09-08T02:01:44.373Z,15.43
2018-09-08T02:02:44.131Z,15.32
2018-09-08T02:03:44.148Z,15.29
2018-09-08T02:04:44.208Z,15.19
2018-09-08T02:05:44.159Z,15.44
2018-09-08T02:06:44.204Z,15.41
2018-09-08T02:07:44.175Z,15.27
2018-09-08T02:08:44.162Z,15.33
2018-09-08T02:09:44.145Z,15.39
2018-09-08T02:10:44.179Z,15.27
2018-09-08T02:11:44.151Z,15.18
2018-09-08T02:12:44.156Z,15.29
2018-09-08T02:13:44.299Z,15.25
2018-09-08T02:14:44.285Z,15.23
2018-09-08T02:15:44.213Z,15.3
2018-09-08T02:16:44.247Z,15.26
2018-09-08T02:17:44.225Z,15.25
2018-09-08T02:18:44.586Z,15.27
2018-09-08T02:19:44.369Z,15.29
2018-09-08T02:20:44.181Z,15.26
2018-09-08T02:21:44.200Z,15.27
2018-09-08T02:22:44.273Z,15.18
2018-09-08T02:23:44.265Z,14.99
2018-09-08T02:24:44.304Z,15.19
2018-09-08T02:25:44.662Z,15.18
2018-09-08T02:26:44.249Z,14.99
2018-09-08T02:27:44.394Z,15
2018-09-08T02:28:44.408Z,15.02
2018-09-08T02:29:44.343Z,15.07
2018-09-08T02:30:44.359Z,15.04
2018-09-08T02:31:44.259Z,15.08
2018-09-08T02:32:44.265Z,15.15
2018-09-08T02:33:44.337Z,15.18
2018-09-08T02:34:44.297Z,15.17
2018-09-08T02:35:44.217Z,15.07
2018-09-08T02:36:44.199Z,15.02
2018-09-08T02:37:44.193Z,15.02
2018-09-08T02:38:44.262Z,15
2018-09-08T02:39:44.324Z,15.11
2018-09-08T02:40:44.386Z,15.17
2018-09-08T02:41:44.250Z,15.08
2018-09-08T02:42:44.236Z,15.23
2018-09-08T02:43:44.236Z,15.25
2018-09-08T02:44:44.246Z,15.27
2018-09-08T02:45:44.428Z,15.25
2018-09-08T02:46:44.270Z,15.37
2018-09-08T02:47:44.251Z,15.29
2018-09-08T02:48:44.369Z,15.37
2018-09-08T02:49:44.386Z,15.36
2018-09-08T02:50:44.251Z,15.23
2018-09-08T02:51:44.290Z,15.35
2018-09-08T02:52:44.305Z,15.17
2018-09-08T02:53:44.239Z,15.23
2018-09-08T02:54:44.280Z,15.23
2018-09-08T02:55:44.285Z,15.3
2018-09-08T02:56:44.284Z,15.32
2018-09-08T02:57:44.251Z,15.25
2018-09-08T02:58:44.290Z,15.25
2018-09-08T02:59:44.259Z,15.35
2018-09-08T03:00:44.334Z,15.32
2018-09-08T03:01:44.258Z,15.26
2018-09-08T03:02:44.249Z,15.26
2018-09-08T03:03:44.399Z,15.14
2018-09-08T03:04:44.280Z,15.22
2018-09-08T03:05:44.382Z,15.1
2018-09-08T03:06:44.389Z,15.19
2018-09-08T03:07:44.286Z,15.15
2018-09-08T03:08:44.302Z,15.08
2018-09-08T03:09:46.361Z,15.02
2018-09-08T03:10:48.464Z,15.04
2018-09-08T03:11:44.312Z,15.05
2018-09-08T03:12:44.660Z,14.92
2018-09-08T03:13:44.297Z,14.99
2018-09-08T03:14:44.335Z,14.99
2018-09-08T03:15:44.272Z,14.97
2018-09-08T03:16:44.267Z,14.97
2018-09-08T03:17:44.293Z,14.94
2018-09-08T03:18:44.654Z,14.89
2018-09-08T03:19:44.434Z,14.9
2018-09-08T03:20:44.291Z,14.86
2018-09-08T03:21:44.252Z,14.79
2018-09-08T03:22:44.296Z,14.7
2018-09-08T03:23:44.455Z,14.79
2018-09-08T03:24:44.289Z,14.68
2018-09-08T03:25:44.329Z,14.79
2018-09-08T03:26:44.354Z,14.78
2018-09-08T03:27:44.320Z,14.78
2018-09-08T03:28:44.328Z,14.86
2018-09-08T03:29:44.351Z,14.9
2018-09-08T03:30:44.307Z,15.04
2018-09-08T03:31:44.317Z,14.97
2018-09-08T03:32:44.412Z,14.93
2018-09-08T03:33:44.616Z,14.99
2018-09-08T03:34:44.337Z,14.96
2018-09-08T03:35:44.337Z,14.92
2018-09-08T03:36:44.273Z,15.04
2018-09-08T03:37:44.344Z,15.04
2018-09-08T03:38:44.453Z,15.12
2018-09-08T03:39:44.331Z,15.26
2018-09-08T03:40:44.300Z,15.3
2018-09-08T03:41:44.383Z,15.27
2018-09-08T03:42:44.281Z,15.22
2018-09-08T03:43:44.414Z,15.25
2018-09-08T03:44:44.436Z,15.23
2018-09-08T03:45:44.468Z,15.39
2018-09-08T03:46:44.397Z,15.35
2018-09-08T03:47:44.659Z,15.37
2018-09-08T03:48:44.522Z,15.32
2018-09-08T03:49:44.362Z,15.27
2018-09-08T03:50:44.336Z,15.33
2018-09-08T03:51:44.372Z,15.32
2018-09-08T03:52:44.334Z,15.32
2018-09-08T03:53:44.346Z,15.36
2018-09-08T03:54:44.426Z,15.3
2018-09-08T03:55:44.359Z,15.39
2018-09-08T03:56:44.550Z,15.23
2018-09-08T03:57:44.408Z,15.29
2018-09-08T03:58:44.373Z,15.25
2018-09-08T03:59:44.488Z,15.35
2018-09-08T04:00:44.462Z,15.27
2018-09-08T04:01:44.597Z,15.32
2018-09-08T04:02:44.399Z,15.27
2018-09-08T04:03:44.694Z,15.35
2018-09-08T04:04:44.425Z,15.39
2018-09-08T04:05:44.569Z,15.43
2018-09-08T04:06:44.390Z,15.43
2018-09-08T04:07:44.333Z,15.44
2018-09-08T04:08:44.337Z,15.44
2018-09-08T04:09:44.348Z,15.44
2018-09-08T04:10:44.413Z,15.32
2018-09-08T04:12:19.181Z,15.36
2018-09-08T04:12:44.412Z,15.5
2018-09-08T04:13:44.377Z,15.45
2018-09-08T04:14:44.433Z,15.41
2018-09-08T04:15:44.386Z,15.36
2018-09-08T04:16:44.371Z,15.23
2018-09-08T04:17:44.401Z,15.39
2018-09-08T04:18:44.469Z,15.43
2018-09-08T04:19:44.375Z,15.39
2018-09-08T04:20:44.399Z,15.33
2018-09-08T04:21:44.388Z,15.41
2018-09-08T04:22:44.437Z,15.37
2018-09-08T04:23:44.370Z,15.26
2018-09-08T04:24:44.375Z,15.27
2018-09-08T04:25:44.374Z,15.29
2018-09-08T04:26:44.393Z,15.39
2018-09-08T04:27:44.426Z,15.26
2018-09-08T04:28:44.673Z,15.37
2018-09-08T04:29:44.439Z,15.36
2018-09-08T04:30:44.595Z,15.29
2018-09-08T04:31:44.414Z,15.36
2018-09-08T04:32:44.354Z,15.41
2018-09-08T04:33:44.412Z,15.48
2018-09-08T04:34:44.509Z,15.35
2018-09-08T04:35:44.380Z,15.32
2018-09-08T04:36:44.388Z,15.43
2018-09-08T04:37:44.392Z,15.39
2018-09-08T04:38:44.551Z,15.26
2018-09-08T04:39:44.560Z,15.27
2018-09-08T04:40:44.406Z,15.25
2018-09-08T04:41:44.480Z,15.35
2018-09-08T04:42:44.388Z,15.25
2018-09-08T04:43:44.463Z,15.15
2018-09-08T04:44:44.397Z,15.14
2018-09-08T04:45:44.418Z,15.18
2018-09-08T04:46:44.430Z,15.07
2018-09-08T04:47:44.443Z,15.14
2018-09-08T04:48:44.534Z,15.02
2018-09-08T04:49:44.477Z,15.05
2018-09-08T04:50:44.443Z,14.96
2018-09-08T04:51:44.464Z,14.99
2018-09-08T04:52:44.400Z,15.1
2018-09-08T04:53:44.393Z,15.07
2018-09-08T04:54:44.399Z,15.08
2018-09-08T04:55:44.411Z,15.02
2018-09-08T04:56:44.441Z,15
2018-09-08T04:57:44.388Z,15
2018-09-08T04:58:44.407Z,15.05
2018-09-08T04:59:44.435Z,14.96
2018-09-08T05:00:44.417Z,14.94
2018-09-08T05:01:44.423Z,14.99
2018-09-08T05:02:44.828Z,14.99
2018-09-08T05:03:44.599Z,14.99
2018-09-08T05:04:44.441Z,14.96
2018-09-08T05:05:44.685Z,14.93
2018-09-08T05:06:44.446Z,14.87
2018-09-08T05:07:44.464Z,14.79
2018-09-08T05:08:44.457Z,14.9
2018-09-08T05:09:44.430Z,14.9
2018-09-08T05:10:44.408Z,14.78
2018-09-08T05:11:44.726Z,14.67
2018-09-08T05:12:44.516Z,14.81
2018-09-08T05:13:44.439Z,14.86
2018-09-08T05:14:44.447Z,15
2018-09-08T05:15:44.540Z,14.94
2018-09-08T05:16:44.447Z,15.08
2018-09-08T05:17:44.560Z,15.12
2018-09-08T05:18:44.705Z,15.07
2018-09-08T05:19:44.695Z,15
2018-09-08T05:20:44.456Z,15.05
2018-09-08T05:21:44.449Z,15.05
2018-09-08T05:22:44.999Z,14.97
2018-09-08T05:23:44.474Z,14.96
2018-09-08T05:24:44.500Z,14.82
2018-09-08T05:25:44.472Z,14.87
2018-09-08T05:26:44.479Z,14.9
2018-09-08T05:27:44.477Z,14.85
2018-09-08T05:28:44.563Z,14.92
2018-09-08T05:29:44.571Z,14.89
2018-09-08T05:30:44.497Z,14.94
2018-09-08T05:31:44.509Z,14.97
2018-09-08T05:32:44.508Z,14.96
2018-09-08T05:33:44.497Z,15.05
2018-09-08T05:34:44.487Z,15.02
2018-09-08T05:35:44.473Z,15.1
2018-09-08T05:36:44.539Z,15.15
2018-09-08T05:37:44.521Z,15.14
2018-09-08T05:38:44.488Z,15.04
2018-09-08T05:39:44.505Z,15.04
2018-09-08T05:40:44.531Z,15.19
2018-09-08T05:41:44.470Z,15.29
2018-09-08T05:42:44.527Z,15.29
2018-09-08T05:43:44.629Z,15.26
2018-09-08T05:44:44.521Z,15.45
2018-09-08T05:45:44.510Z,15.47
2018-09-08T05:46:44.517Z,15.43
2018-09-08T05:47:44.506Z,15.33
2018-09-08T05:48:44.606Z,15.35
2018-09-08T05:49:44.552Z,14.99
2018-09-08T05:50:44.499Z,15.22
2018-09-08T05:51:44.550Z,15.18
2018-09-08T05:52:44.501Z,15.27
2018-09-08T05:53:44.512Z,15.27
2018-09-08T05:54:44.557Z,15.33
2018-09-08T05:55:44.557Z,15.41
2018-09-08T05:56:44.572Z,15.44
2018-09-08T05:57:44.508Z,15.36
2018-09-08T05:58:44.509Z,15.41
2018-09-08T05:59:44.517Z,15.25
2018-09-08T06:00:44.517Z,15.39
2018-09-08T06:01:44.560Z,15.43
2018-09-08T06:02:44.530Z,15.63
2018-09-08T06:03:44.504Z,15.54
2018-09-08T06:04:44.556Z,15.62
2018-09-08T06:05:44.551Z,15.65
2018-09-08T06:06:44.608Z,15.72
2018-09-08T06:07:44.600Z,15.73
2018-09-08T06:08:44.764Z,15.48
2018-09-08T06:09:44.515Z,15.6
2018-09-08T06:10:44.769Z,15.41
2018-09-08T06:11:44.593Z,15.55
2018-09-08T06:12:44.671Z,15.51
2018-09-08T06:13:44.604Z,15.54
2018-09-08T06:14:44.577Z,15.62
2018-09-08T06:15:44.549Z,15.67
2018-09-08T06:16:44.525Z,15.8
2018-09-08T06:17:44.567Z,15.84
2018-09-08T06:18:44.848Z,15.91
2018-09-08T06:19:44.745Z,15.87
2018-09-08T06:20:44.650Z,15.84
2018-09-08T06:21:44.524Z,15.88
2018-09-08T06:22:44.573Z,15.83
2018-09-08T06:23:44.538Z,15.91
2018-09-08T06:24:44.607Z,15.78
2018-09-08T06:25:44.667Z,15.72
2018-09-08T06:26:44.563Z,15.65
2018-09-08T06:27:44.575Z,15.66
2018-09-08T06:28:44.722Z,15.81
2018-09-08T06:29:44.660Z,15.99
2018-09-08T06:30:44.652Z,16.39
2018-09-08T06:31:44.604Z,16.49
2018-09-08T06:32:44.564Z,16.83
2018-09-08T06:33:44.965Z,17.04
2018-09-08T06:34:44.584Z,16.91
2018-09-08T06:35:44.753Z,17.04
2018-09-08T06:36:44.589Z,17.3
2018-09-08T06:37:44.599Z,17.23
2018-09-08T06:38:46.111Z,17.13
2018-09-08T06:44:02.220Z,18.57
2018-09-08T06:44:24.556Z,18.66
2018-09-08T06:45:24.523Z,18.76
2018-09-08T06:46:24.658Z,18.43
2018-09-08T06:47:24.459Z,18.6
2018-09-08T06:48:24.617Z,18.71
2018-09-08T06:49:24.475Z,19
2018-09-08T06:50:24.673Z,18.94
2018-09-08T06:51:24.487Z,19.2
2018-09-08T06:52:24.564Z,19.12
2018-09-08T06:53:24.510Z,19.2
2018-09-08T06:54:24.615Z,19.29
2018-09-08T06:55:24.509Z,19.11
2018-09-08T06:56:24.669Z,19.67
2018-09-08T06:57:24.504Z,19.27
2018-09-08T06:58:24.488Z,19.35
2018-09-08T06:59:24.508Z,19.49
2018-09-08T07:00:24.516Z,19.66
2018-09-08T07:01:24.964Z,19.75
2018-09-08T07:02:24.705Z,20.04
2018-09-08T07:03:24.883Z,19.77
2018-09-08T07:04:24.760Z,19.77
2018-09-08T07:05:24.497Z,19.71
2018-09-08T07:06:24.512Z,19.55
2018-09-08T07:07:24.544Z,19.2
2018-09-08T07:08:24.665Z,19.32
2018-09-08T07:09:24.508Z,19.2
2018-09-08T07:10:24.519Z,19.04
2018-09-08T07:11:24.512Z,19.07
2018-09-08T07:12:24.523Z,18.74
2018-09-08T07:13:25.892Z,18.82
2018-09-08T07:14:24.510Z,19.07
2018-09-08T07:15:24.570Z,19.55
2018-09-08T07:16:24.639Z,19.41
2018-09-08T07:17:24.566Z,19.59
2018-09-08T07:18:24.539Z,19.79
2018-09-08T07:19:24.639Z,19.74
2018-09-08T07:20:24.518Z,19.79
2018-09-08T07:21:24.548Z,20.22
2018-09-08T07:22:24.625Z,20.19
2018-09-08T07:23:24.522Z,20.32
2018-09-08T07:24:24.588Z,20.24
2018-09-08T07:25:24.574Z,20.15
2018-09-08T07:26:24.603Z,20.39
2018-09-08T07:27:24.620Z,20.7
2018-09-08T07:28:24.561Z,20.78
2018-09-08T07:29:24.578Z,20.74
2018-09-08T07:30:24.565Z,20.98
2018-09-08T07:31:24.613Z,20.83
2018-09-08T07:32:24.555Z,20.98
2018-09-08T07:33:24.696Z,21.03
2018-09-08T07:34:24.658Z,21.2
2018-09-08T07:35:24.736Z,21.56
2018-09-08T07:36:24.815Z,21.44
2018-09-08T07:37:24.673Z,21.15
2018-09-08T07:38:24.652Z,20.78
2018-09-08T07:39:24.551Z,20.75
2018-09-08T07:40:24.590Z,20.96
2018-09-08T07:41:24.942Z,20.93
2018-09-08T07:42:24.572Z,20.8
2018-09-08T07:43:24.798Z,20.74
2018-09-08T07:44:24.587Z,20.93
2018-09-08T07:45:24.558Z,21.15
2018-09-08T07:46:24.581Z,21.13
2018-09-08T07:47:24.741Z,21.17
2018-09-08T07:48:24.954Z,20.96
2018-09-08T07:49:24.829Z,21.37
2018-09-08T07:54:03.143Z,20.7
2018-09-08T07:55:03.021Z,20.63
2018-09-08T07:56:03.036Z,20.95
2018-09-08T07:57:03.279Z,21.19
2018-09-08T07:58:03.115Z,21.3
2018-09-08T07:59:03.021Z,20.83
2018-09-08T08:00:03.109Z,20.96
2018-09-08T08:01:03.026Z,20.92
2018-09-08T08:02:03.033Z,20.77
2018-09-08T08:03:03.011Z,21.1
2018-09-08T08:04:03.022Z,21
2018-09-08T08:05:03.036Z,20.8
2018-09-08T08:06:02.996Z,21.2
2018-09-08T08:07:09.936Z,21.11
2018-09-08T08:08:03.168Z,20.92
2018-09-08T08:09:03.094Z,20.73
2018-09-08T08:10:03.239Z,20.8
2018-09-08T08:11:06.674Z,20.74
2018-09-08T08:12:05.145Z,20.44
2018-09-08T08:13:03.343Z,20.42
2018-09-08T08:14:03.051Z,20.34
2018-09-08T08:15:03.090Z,20.04
2018-09-08T08:16:03.060Z,19.81
2018-09-08T08:17:03.019Z,19.93
2018-09-08T08:18:03.028Z,19.56
2018-09-08T08:19:03.149Z,19.62
2018-09-08T08:20:03.079Z,19.84
2018-09-08T08:21:03.069Z,20.08
2018-09-08T08:22:03.086Z,20.29
2018-09-08T08:23:03.064Z,20.26
2018-09-08T08:24:03.070Z,20.49
2018-09-08T08:25:03.108Z,20.71
2018-09-08T08:26:03.079Z,20.71
2018-09-08T08:27:03.061Z,20.64
2018-09-08T08:28:03.038Z,21.04
2018-09-08T08:29:03.246Z,21.25
2018-09-08T08:30:03.061Z,21.28
2018-09-08T08:31:03.099Z,21.08
2018-09-08T08:32:03.069Z,21.43
2018-09-08T08:33:03.096Z,21.63
2018-09-08T08:34:03.051Z,21.84
2018-09-08T08:35:03.070Z,21.84
2018-09-08T08:36:03.092Z,21.78
2018-09-08T08:37:03.149Z,22.01
2018-09-08T08:38:03.060Z,22
2018-09-08T08:39:03.079Z,22.33
2018-09-08T08:40:03.042Z,22.62
2018-09-08T08:41:03.088Z,22.88
2018-09-08T08:42:03.049Z,22.73
2018-09-08T08:43:03.070Z,22.8
2018-09-08T08:44:03.112Z,22.65
2018-09-08T08:45:03.095Z,22.61
2018-09-08T08:46:03.144Z,22.78
2018-09-08T08:47:03.093Z,23.02
2018-09-08T08:48:03.100Z,23.07
2018-09-08T08:49:03.103Z,23.07
2018-09-08T08:50:03.169Z,22.63
2018-09-08T08:51:03.333Z,23.07
2018-09-08T08:52:03.123Z,22.7
2018-09-08T08:53:03.128Z,21.94
2018-09-08T08:54:03.133Z,22.22
2018-09-08T08:55:03.116Z,22.53
2018-09-08T08:56:03.107Z,22.46
2018-09-08T08:57:03.284Z,22.63
2018-09-08T08:58:03.150Z,22.34
2018-09-08T08:59:03.209Z,22.31
2018-09-08T09:00:03.984Z,21.96
2018-09-08T09:05:20.761Z,22.03
2018-09-08T09:05:33.204Z,21.6
2018-09-08T09:06:33.184Z,22.04
2018-09-08T09:07:33.889Z,22.28
2018-09-08T09:08:33.909Z,22.14
2018-09-08T09:09:33.373Z,22.53
2018-09-08T09:10:33.280Z,22.89
2018-09-08T09:11:33.188Z,23.08
2018-09-08T09:12:34.045Z,22.55
2018-09-08T09:13:33.623Z,22.51
2018-09-08T09:14:33.738Z,22.49
2018-09-08T09:15:33.831Z,22.8
2018-09-08T09:16:33.483Z,22.81
2018-09-08T09:17:33.321Z,22.99
2018-09-08T09:18:33.974Z,23.29
2018-09-08T09:19:33.237Z,23.25
2018-09-08T09:20:33.217Z,23.39
2018-09-08T09:21:33.557Z,23.55
2018-09-08T09:22:33.279Z,23.96
2018-09-08T09:23:33.271Z,24.26
2018-09-08T09:24:33.922Z,24.29
2018-09-08T09:25:33.759Z,24.25
2018-09-08T09:26:33.208Z,24.41
2018-09-08T09:27:33.453Z,23.85
2018-09-08T09:28:33.256Z,23.94
2018-09-08T09:29:33.269Z,24.07
2018-09-08T09:30:33.238Z,24.31
2018-09-08T09:31:33.461Z,24.09
2018-09-08T09:32:33.347Z,24.51
2018-09-08T09:33:34.035Z,24.06
2018-09-08T09:34:33.808Z,24.14
2018-09-08T09:35:33.451Z,24.44
2018-09-08T09:36:33.284Z,24.77
2018-09-08T09:37:33.649Z,24.77
2018-09-08T09:38:33.625Z,24.44
2018-09-08T09:39:34.197Z,23.82
2018-09-08T09:40:33.259Z,23.88
2018-09-08T09:41:33.356Z,24.11
2018-09-08T09:42:33.240Z,24.48
2018-09-08T09:43:33.216Z,24.99
2018-09-08T09:44:33.478Z,24.63
2018-09-08T09:45:34.147Z,24.63
2018-09-08T09:46:33.299Z,24.22
2018-09-08T09:47:33.956Z,23.92
2018-09-08T09:48:36.112Z,23.92
2018-09-08T09:49:34.107Z,23.88
2018-09-08T09:50:34.769Z,24.13
2018-09-08T09:51:35.130Z,24.34
2018-09-08T09:56:05.537Z,24.09
2018-09-08T09:57:05.454Z,23.96
2018-09-08T09:58:05.458Z,24.26
2018-09-08T09:59:05.477Z,24.31
2018-09-08T10:00:05.548Z,24.62
2018-09-08T10:01:05.537Z,24.37
2018-09-08T10:02:05.506Z,24.29
2018-09-08T10:03:05.435Z,24.61
2018-09-08T10:04:05.411Z,24.59
2018-09-08T10:05:05.567Z,24.24
2018-09-08T10:06:05.565Z,24.58
2018-09-08T10:07:05.464Z,24.31
2018-09-08T10:08:05.427Z,24.44
2018-09-08T10:09:05.460Z,23.77
2018-09-08T10:10:05.484Z,24.14
2018-09-08T10:11:05.486Z,24.58
2018-09-08T10:12:05.653Z,24.82
2018-09-08T10:13:05.433Z,24.85
2018-09-08T10:14:06.687Z,24.75
2018-09-08T10:15:05.476Z,25.11
2018-09-08T10:16:05.448Z,25.15
2018-09-08T10:17:05.458Z,25.22
2018-09-08T10:18:05.587Z,25.16
2018-09-08T10:19:05.682Z,25.41
2018-09-08T10:20:05.542Z,25.44
2018-09-08T10:21:05.457Z,25.15
2018-09-08T10:22:05.486Z,24.99
2018-09-08T10:23:05.606Z,25.52
2018-09-08T10:24:05.647Z,25.66
2018-09-08T10:25:05.544Z,25.93
2018-09-08T10:26:05.640Z,25.93
2018-09-08T10:27:05.706Z,26.24
2018-09-08T10:28:05.494Z,25.77
2018-09-08T10:29:05.476Z,25.78
2018-09-08T10:30:05.583Z,25.36
2018-09-08T10:31:05.531Z,25.21
2018-09-08T10:32:05.902Z,25.39
2018-09-08T10:33:05.521Z,24.97
2018-09-08T10:34:05.465Z,24.97
2018-09-08T10:35:05.551Z,24.62
2018-09-08T10:36:05.468Z,24.55
2018-09-08T10:37:05.549Z,25.26
2018-09-08T10:38:05.456Z,25.68
2018-09-08T10:39:05.469Z,25.49
2018-09-08T10:40:05.551Z,25.7
2018-09-08T10:41:05.514Z,25.09
2018-09-08T10:42:05.559Z,25.51
2018-09-08T10:43:05.503Z,25.68
2018-09-08T10:44:05.510Z,25.86
2018-09-08T10:45:05.543Z,25.93
2018-09-08T10:46:05.544Z,26.19
2018-09-08T10:47:05.486Z,25.95
2018-09-08T10:48:05.489Z,26.06
2018-09-08T10:49:05.528Z,26.23
2018-09-08T10:50:05.615Z,26.1
2018-09-08T10:51:05.682Z,26.34
2018-09-08T10:52:05.553Z,26.26
2018-09-08T10:53:06.108Z,26.29
2018-09-08T10:54:05.521Z,26.59
2018-09-08T10:55:05.542Z,26.82
2018-09-08T10:56:05.525Z,26.3
2018-09-08T10:57:05.517Z,26.6
2018-09-08T10:58:05.490Z,26.44
2018-09-08T10:59:05.569Z,26.55
2018-09-08T11:00:05.611Z,25.95
2018-09-08T11:01:05.512Z,26.34
2018-09-08T11:02:05.960Z,26.49
2018-09-08T11:03:05.544Z,26.81
2018-09-08T11:04:05.547Z,26.73
2018-09-08T11:05:05.571Z,26.93
2018-09-08T11:06:05.546Z,27.05
2018-09-08T11:07:05.534Z,26.68
2018-09-08T11:08:05.537Z,27
2018-09-08T11:09:05.620Z,26.36
2018-09-08T11:10:05.585Z,26.98
2018-09-08T11:11:05.563Z,27.2
2018-09-08T11:12:05.566Z,27
2018-09-08T11:13:05.525Z,26.74
2018-09-08T11:14:05.543Z,26.85
2018-09-08T11:15:05.602Z,26.92
2018-09-08T11:16:05.600Z,26.89
2018-09-08T11:17:05.603Z,27.19
2018-09-08T11:18:05.574Z,27.18
2018-09-08T11:19:05.577Z,26.98
2018-09-08T11:20:05.588Z,26.61
2018-09-08T11:21:05.592Z,27.04
2018-09-08T11:22:05.633Z,26.74
2018-09-08T11:23:05.814Z,26.36
2018-09-08T11:24:05.826Z,26.55
2018-09-08T11:25:05.839Z,26.42
2018-09-08T11:26:05.801Z,26.7
2018-09-08T11:27:05.674Z,26.98
2018-09-08T11:28:05.635Z,26.46
2018-09-08T11:29:05.580Z,26.51
2018-09-08T11:30:05.645Z,26.83
2018-09-08T11:31:05.635Z,27.05
2018-09-08T11:32:05.592Z,26.85
2018-09-08T11:33:05.608Z,26.89
2018-09-08T11:34:05.587Z,26.98
2018-09-08T11:35:05.580Z,27.05
2018-09-08T11:36:05.601Z,26.46
2018-09-08T11:37:05.570Z,26.45
2018-09-08T11:38:05.760Z,26.06
2018-09-08T11:39:05.605Z,26.49
2018-09-08T11:40:05.565Z,26.6
2018-09-08T11:41:05.823Z,26.61
2018-09-08T11:42:05.858Z,26.52
2018-09-08T11:43:05.915Z,26.81
2018-09-08T11:44:05.917Z,26.83
2018-09-08T11:45:06.499Z,27.01
2018-09-08T11:46:05.865Z,26.76
2018-09-08T11:47:05.637Z,26.7
2018-09-08T11:48:05.645Z,26.98
2018-09-08T11:49:05.585Z,27.08
2018-09-08T11:50:05.650Z,26.97
2018-09-08T11:51:05.588Z,27.2
2018-09-08T11:52:05.606Z,27.16
2018-09-08T11:53:05.978Z,27.23
2018-09-08T11:54:05.660Z,27.43
2018-09-08T11:55:05.645Z,27.4
2018-09-08T11:56:05.631Z,27.34
2018-09-08T11:57:05.602Z,27.25
2018-09-08T11:58:05.647Z,27.48
2018-09-08T11:59:05.649Z,27
2018-09-08T12:00:05.697Z,27.29
2018-09-08T12:01:05.665Z,26.85
2018-09-08T12:02:05.772Z,27.04
2018-09-08T12:03:05.813Z,27.34
2018-09-08T12:04:05.620Z,27.66
2018-09-08T12:05:05.613Z,27.67
2018-09-08T12:06:05.618Z,27.76
2018-09-08T12:07:05.663Z,27.76
2018-09-08T12:08:05.784Z,27.61
2018-09-08T12:09:05.696Z,27.37
2018-09-08T12:10:05.719Z,27.73
2018-09-08T12:11:05.630Z,27.63
2018-09-08T12:12:05.656Z,27.64
2018-09-08T12:13:05.675Z,27.41
2018-09-08T12:14:05.767Z,27.41
2018-09-08T12:15:05.683Z,27.28
2018-09-08T12:16:05.699Z,27.68
2018-09-08T12:17:05.880Z,27.72
2018-09-08T12:18:05.653Z,27.67
2018-09-08T12:19:05.793Z,27.58
2018-09-08T12:20:05.653Z,27.29
2018-09-08T12:21:05.823Z,26.64
2018-09-08T12:22:05.739Z,26.61
2018-09-08T12:23:05.691Z,27.08
2018-09-08T12:24:05.676Z,27.07
2018-09-08T12:25:05.785Z,27.29
2018-09-08T12:26:05.712Z,27.1
2018-09-08T12:27:05.721Z,26.81
2018-09-08T12:28:05.727Z,26.82
2018-09-08T12:29:05.697Z,27.01
2018-09-08T12:30:05.818Z,26.89
2018-09-08T12:31:05.841Z,27
2018-09-08T12:32:05.732Z,27.11
2018-09-08T12:33:05.718Z,27.23
2018-09-08T12:34:05.718Z,26.89
2018-09-08T12:35:05.702Z,27.01
2018-09-08T12:36:05.738Z,27.1
2018-09-08T12:37:05.863Z,27.25
2018-09-08T12:38:05.755Z,27.45
2018-09-08T12:39:05.769Z,27.25
2018-09-08T12:40:05.679Z,27.35
2018-09-08T12:41:05.723Z,27.43
2018-09-08T12:42:05.719Z,27.6
2018-09-08T12:43:05.696Z,27.6
2018-09-08T12:44:05.760Z,27.68
2018-09-08T12:45:05.795Z,27.75
2018-09-08T12:46:05.856Z,27.78
2018-09-08T12:47:05.751Z,27.61
2018-09-08T12:48:05.704Z,27.4
2018-09-08T12:49:05.766Z,27.45
2018-09-08T12:50:05.866Z,27.82
2018-09-08T12:51:05.919Z,27.22
2018-09-08T12:52:05.969Z,27.26
2018-09-08T12:53:06.015Z,27.67
2018-09-08T12:54:06.018Z,27.78
2018-09-08T12:55:23.038Z,27.19
2018-09-08T12:56:22.853Z,27.15
2018-09-08T12:57:22.860Z,27.33
2018-09-08T12:58:22.883Z,27.5
2018-09-08T12:59:22.928Z,27.79
2018-09-08T13:00:22.825Z,27.72
2018-09-08T13:01:22.847Z,27.61
2018-09-08T13:02:22.821Z,27.66
2018-09-08T13:03:22.844Z,27.71
2018-09-08T13:04:22.855Z,27.88
2018-09-08T13:05:22.847Z,27.82
2018-09-08T13:06:22.912Z,28.08
2018-09-08T13:07:22.860Z,28.01
2018-09-08T13:08:22.846Z,27.95
2018-09-08T13:09:22.900Z,27.16
2018-09-08T13:10:22.999Z,26.3
2018-09-08T13:11:22.878Z,26.51
2018-09-08T13:12:22.858Z,26.29
2018-09-08T13:13:22.866Z,26.73
2018-09-08T13:14:23.229Z,27.01
2018-09-08T13:15:23.150Z,27.3
2018-09-08T13:16:22.884Z,27.29
2018-09-08T13:17:22.946Z,26.88
2018-09-08T13:18:22.931Z,27.01
2018-09-08T13:19:22.934Z,27.23
2018-09-08T13:20:22.905Z,27.16
2018-09-08T13:21:22.866Z,27.05
2018-09-08T13:22:22.874Z,26.97
2018-09-08T13:23:23.080Z,27.22
2018-09-08T13:24:23.137Z,27.23
2018-09-08T13:25:23.027Z,27.38
2018-09-08T13:26:23.071Z,27.48
2018-09-08T13:27:22.980Z,27.5
2018-09-08T13:28:22.921Z,27.53
2018-09-08T13:29:22.860Z,27.53
2018-09-08T13:30:23.008Z,27.2
2018-09-08T13:31:23.335Z,27.41
2018-09-08T13:32:22.997Z,27.18
2018-09-08T13:33:22.947Z,27.29
2018-09-08T13:34:23.032Z,27.58
2018-09-08T13:35:23.556Z,27.26